Terminal Aerodrome Forecast
Issued by NWS

Home | Current Version | Previous Version | Text Only | Print | Product List | Glossary On
Versions: 1 2 3 4 5 6 7 8 9 10 11 12 13 14 15 16 17 18 19 20 21 22 23 24 25 26 27 28 29 30 31 32 33
000
FTUS43 KLOT 312350
TAFORD
TAF
KORD 312350Z 0100/0206 06007KT P6SM BKN100
     FM010500 12006KT P6SM SCT050 BKN100
     FM010900 15007KT P6SM VCSH SCT050 BKN100
     FM011200 18006KT 6SM SHRA VCTS SCT040CB BKN080
     FM011600 22008KT P6SM BKN080
     FM012000 26010KT P6SM VCTS SCT040 BKN100CB
     FM020000 28006KT P6SM SCT250=

USA.gov is the U.S. government's official web portal to all federal, state and local government web resources and services.